createdAt,value
2023-03-29T00:00:15.741Z,62.32
2023-03-29T00:03:04.287Z,62.44
2023-03-29T00:05:35.012Z,63.13
2023-03-29T00:08:04.114Z,63.52
2023-03-29T00:10:33.649Z,63.96
2023-03-29T00:13:02.786Z,63.32
2023-03-29T00:15:30.761Z,63.88
2023-03-29T00:17:58.694Z,64.02
2023-03-29T00:20:26.951Z,64.36
2023-03-29T00:22:54.751Z,64.60
2023-03-29T00:25:22.716Z,65.17
2023-03-29T00:27:50.587Z,65.09
2023-03-29T00:30:18.818Z,65.58
2023-03-29T00:32:47.031Z,65.09
2023-03-29T00:35:15.114Z,64.90
2023-03-29T00:37:43.463Z,65.25
2023-03-29T00:40:11.773Z,64.44
2023-03-29T00:42:44.890Z,65.20
2023-03-29T00:45:12.586Z,65.48
2023-03-29T00:47:51.935Z,65.75
2023-03-29T00:50:40.419Z,65.02
2023-03-29T00:53:21.638Z,65.43
2023-03-29T00:55:59.515Z,66.00
2023-03-29T00:59:13.870Z,66.69
2023-03-29T01:01:57.183Z,66.06
2023-03-29T01:04:46.216Z,65.69
2023-03-29T01:07:22.993Z,66.48
2023-03-29T01:10:01.408Z,66.88
2023-03-29T01:12:35.933Z,67.15
2023-03-29T01:15:10.402Z,68.25
2023-03-29T01:17:41.748Z,68.69
2023-03-29T01:20:22.220Z,68.87
2023-03-29T01:23:26.932Z,68.27
2023-03-29T01:26:20.706Z,68.39
2023-03-29T01:28:59.244Z,68.69
2023-03-29T01:31:36.520Z,68.50
2023-03-29T01:34:18.079Z,69.35
2023-03-29T01:37:00.237Z,69.16
2023-03-29T01:39:28.015Z,68.78
2023-03-29T01:42:27.069Z,68.06
2023-03-29T01:45:23.083Z,67.86
2023-03-29T01:48:25.229Z,67.77
2023-03-29T01:51:07.126Z,68.35
2023-03-29T01:53:50.958Z,68.36
2023-03-29T01:56:26.352Z,68.69
2023-03-29T01:59:04.312Z,69.48
2023-03-29T02:01:40.257Z,69.79
2023-03-29T02:04:13.381Z,68.60
2023-03-29T02:06:42.240Z,67.32
2023-03-29T02:09:12.972Z,68.36
2023-03-29T02:11:42.982Z,68.23
2023-03-29T02:14:10.836Z,69.25
2023-03-29T02:16:40.318Z,69.22
2023-03-29T02:19:10.612Z,69.03
2023-03-29T02:22:05.787Z,67.58
2023-03-29T02:24:36.453Z,66.89
2023-03-29T02:27:04.759Z,67.17
2023-03-29T02:29:32.731Z,69.78
2023-03-29T02:32:13.192Z,69.29
2023-03-29T02:34:56.501Z,68.87
2023-03-29T02:37:30.047Z,68.44
2023-03-29T02:39:58.833Z,68.55
2023-03-29T02:42:28.488Z,68.60
2023-03-29T02:45:00.028Z,68.42
2023-03-29T02:47:38.288Z,67.92
2023-03-29T02:50:07.519Z,67.59
2023-03-29T02:52:43.109Z,67.02
2023-03-29T02:55:17.270Z,67.71
2023-03-29T02:57:45.461Z,68.09
2023-03-29T03:00:14.842Z,68.61
2023-03-29T03:02:43.177Z,68.51
2023-03-29T03:05:11.489Z,67.82
2023-03-29T03:07:40.613Z,66.96
2023-03-29T03:10:10.212Z,66.38
2023-03-29T03:12:38.691Z,66.40
2023-03-29T03:15:07.827Z,66.70
2023-03-29T03:17:40.249Z,68.46
2023-03-29T03:20:13.093Z,68.30
2023-03-29T03:22:49.523Z,69.04
2023-03-29T03:25:20.980Z,68.98
2023-03-29T03:27:50.283Z,69.08
2023-03-29T03:30:20.778Z,68.88
2023-03-29T03:33:07.855Z,68.43
2023-03-29T03:36:02.619Z,68.77
2023-03-29T03:38:32.578Z,68.18
2023-03-29T03:41:02.243Z,68.70
2023-03-29T03:43:31.127Z,68.39
2023-03-29T03:45:59.085Z,68.44
2023-03-29T03:48:27.270Z,68.65
2023-03-29T03:51:14.122Z,68.01
2023-03-29T03:53:42.268Z,68.45
2023-03-29T03:56:13.923Z,68.61
2023-03-29T03:59:01.061Z,69.12
2023-03-29T04:01:30.443Z,68.57
2023-03-29T04:04:11.864Z,69.31
2023-03-29T04:06:43.146Z,69.35
2023-03-29T04:09:35.549Z,68.67
2023-03-29T04:12:23.642Z,68.01
2023-03-29T04:14:52.117Z,67.73
2023-03-29T04:17:22.627Z,67.44
2023-03-29T04:19:55.648Z,67.37
2023-03-29T04:22:27.699Z,67.76
2023-03-29T04:24:55.564Z,67.45
2023-03-29T04:27:46.304Z,67.71
2023-03-29T04:30:36.477Z,67.10
2023-03-29T04:33:15.948Z,66.77
2023-03-29T04:35:47.725Z,66.84
2023-03-29T04:38:16.691Z,66.94
2023-03-29T04:40:45.578Z,67.35
2023-03-29T04:43:23.600Z,67.15
2023-03-29T04:45:59.528Z,66.90
2023-03-29T04:48:48.290Z,66.50
2023-03-29T04:51:17.609Z,66.82
2023-03-29T04:53:45.872Z,66.44
2023-03-29T04:56:13.692Z,66.60
2023-03-29T04:59:13.372Z,66.46
2023-03-29T05:01:41.513Z,65.88
2023-03-29T05:04:12.554Z,65.76
2023-03-29T05:06:45.084Z,65.85
2023-03-29T05:09:12.870Z,65.79
2023-03-29T05:11:52.006Z,65.96
2023-03-29T05:14:20.950Z,66.15
2023-03-29T05:16:48.988Z,66.47
2023-03-29T05:19:17.608Z,66.80
2023-03-29T05:21:50.093Z,67.07
2023-03-29T05:24:22.370Z,66.20
2023-03-29T05:27:13.470Z,66.50
2023-03-29T05:29:42.593Z,66.46
2023-03-29T05:32:22.924Z,66.08
2023-03-29T05:34:51.520Z,65.76
2023-03-29T05:37:19.900Z,65.28
2023-03-29T05:39:51.012Z,65.23
2023-03-29T05:42:22.540Z,64.36
2023-03-29T05:44:55.208Z,64.61
2023-03-29T05:47:23.677Z,65.42
2023-03-29T05:49:51.537Z,64.53
2023-03-29T05:52:24.624Z,64.17
2023-03-29T05:54:52.884Z,63.86
2023-03-29T05:57:22.025Z,63.76
2023-03-29T05:59:49.904Z,63.47
2023-03-29T06:02:18.838Z,63.38
2023-03-29T06:04:51.811Z,63.40
2023-03-29T06:07:38.365Z,63.10
2023-03-29T06:10:28.721Z,62.57
2023-03-29T06:13:06.037Z,62.35
2023-03-29T06:15:35.360Z,61.87
2023-03-29T06:18:06.455Z,61.68
2023-03-29T06:20:35.189Z,61.70
2023-03-29T06:23:08.585Z,61.39
2023-03-29T06:25:36.409Z,61.02
2023-03-29T06:28:04.497Z,61.18
2023-03-29T06:30:32.824Z,61.00
2023-03-29T06:33:01.634Z,61.27
2023-03-29T06:35:48.431Z,61.17
2023-03-29T06:38:21.189Z,61.75
2023-03-29T06:41:12.007Z,61.07
2023-03-29T06:43:51.599Z,60.40
2023-03-29T06:46:23.331Z,60.14
2023-03-29T06:48:56.310Z,59.78
2023-03-29T06:51:25.411Z,59.94
2023-03-29T06:53:53.425Z,60.20
2023-03-29T06:56:22.259Z,60.39
2023-03-29T06:58:59.544Z,60.18
2023-03-29T07:01:47.692Z,60.86
2023-03-29T07:04:25.027Z,60.72
2023-03-29T07:07:20.127Z,60.17
2023-03-29T07:09:54.470Z,60.36
2023-03-29T07:12:44.583Z,60.24
2023-03-29T07:15:13.186Z,60.87
2023-03-29T07:18:04.943Z,60.87
2023-03-29T07:20:33.726Z,59.90
2023-03-29T07:23:11.340Z,59.13
2023-03-29T07:25:39.403Z,59.32
2023-03-29T07:28:07.933Z,59.71
2023-03-29T07:30:37.194Z,59.40
2023-03-29T07:33:20.074Z,59.42
2023-03-29T07:36:00.923Z,59.66
2023-03-29T07:38:29.174Z,59.09
2023-03-29T07:41:05.788Z,59.40
2023-03-29T07:43:46.810Z,59.56
2023-03-29T07:46:17.049Z,58.99
2023-03-29T07:48:45.049Z,59.40
2023-03-29T07:51:16.413Z,59.73
2023-03-29T07:53:46.221Z,59.58
2023-03-29T07:56:36.278Z,60.09
2023-03-29T07:59:30.871Z,59.36
2023-03-29T08:02:11.148Z,59.57
2023-03-29T08:04:47.601Z,58.29
2023-03-29T08:07:20.066Z,57.69
2023-03-29T08:10:15.250Z,57.30
2023-03-29T08:13:10.570Z,57.24
2023-03-29T08:15:59.017Z,55.75
2023-03-29T08:18:34.932Z,55.62
2023-03-29T08:21:03.792Z,55.88
2023-03-29T08:23:32.497Z,55.51
2023-03-29T08:26:08.588Z,54.94
2023-03-29T08:28:36.524Z,54.10
2023-03-29T08:31:04.665Z,53.84
2023-03-29T08:33:32.897Z,52.76
2023-03-29T08:36:19.713Z,52.79
2023-03-29T08:38:48.165Z,52.97
2023-03-29T08:41:42.531Z,52.61
2023-03-29T08:44:36.258Z,51.86
2023-03-29T08:47:53.182Z,51.41
2023-03-29T08:50:27.232Z,51.11
2023-03-29T08:53:00.433Z,50.95
2023-03-29T08:55:49.064Z,51.02
2023-03-29T08:58:47.905Z,49.61
2023-03-29T09:01:15.880Z,49.57
2023-03-29T09:04:20.093Z,49.92
2023-03-29T09:06:52.933Z,48.58
2023-03-29T09:09:35.425Z,48.53
2023-03-29T09:12:41.060Z,47.64
2023-03-29T09:15:24.080Z,47.15
2023-03-29T09:18:37.631Z,47.18
2023-03-29T09:21:41.784Z,46.75
2023-03-29T09:24:36.544Z,48.27
2023-03-29T09:27:26.675Z,47.18
2023-03-29T09:30:26.295Z,48.40
2023-03-29T09:33:31.459Z,48.68
2023-03-29T09:36:25.270Z,47.62
2023-03-29T09:38:56.898Z,47.88
2023-03-29T09:41:58.351Z,48.69
2023-03-29T09:44:35.780Z,48.43
2023-03-29T09:47:17.255Z,47.31
2023-03-29T09:49:51.554Z,47.50
2023-03-29T09:52:20.870Z,46.70
2023-03-29T09:54:59.773Z,47.56
2023-03-29T09:57:54.010Z,47.37
2023-03-29T10:00:22.365Z,47.15
2023-03-29T10:02:57.755Z,47.54
2023-03-29T10:05:39.962Z,47.39
2023-03-29T10:08:40.758Z,48.75
2023-03-29T10:11:35.550Z,48.80
2023-03-29T10:14:12.365Z,46.77
2023-03-29T10:16:46.070Z,46.22
2023-03-29T10:19:27.300Z,45.50
2023-03-29T10:21:59.709Z,46.52
2023-03-29T10:24:28.245Z,46.88
2023-03-29T10:27:11.642Z,45.07
2023-03-29T10:29:43.219Z,45.65
2023-03-29T10:32:17.233Z,46.70
2023-03-29T10:34:50.444Z,45.96
2023-03-29T10:37:19.587Z,45.16
2023-03-29T10:39:48.827Z,44.91
2023-03-29T10:42:23.599Z,45.99
2023-03-29T10:44:58.445Z,44.48
2023-03-29T10:47:34.351Z,43.51
2023-03-29T10:50:07.384Z,43.15
2023-03-29T10:52:35.180Z,43.09
2023-03-29T10:55:03.198Z,43.35
2023-03-29T10:58:00.489Z,44.03
2023-03-29T11:00:40.704Z,42.52
2023-03-29T11:03:44.755Z,42.13
2023-03-29T11:06:15.301Z,42.29
2023-03-29T11:09:44.750Z,43.04
2023-03-29T11:12:26.883Z,43.04
2023-03-29T11:15:14.620Z,44.07
2023-03-29T11:18:03.747Z,42.91
2023-03-29T11:20:52.710Z,44.15
2023-03-29T11:23:43.576Z,42.68
2023-03-29T11:26:28.423Z,42.44
2023-03-29T11:29:27.108Z,42.03
2023-03-29T11:32:41.158Z,41.33
2023-03-29T11:35:27.366Z,42.30
2023-03-29T11:38:25.028Z,41.37
2023-03-29T11:41:10.790Z,41.32
2023-03-29T11:43:44.076Z,41.94
2023-03-29T11:46:23.475Z,41.22
2023-03-29T11:49:10.054Z,40.49
2023-03-29T11:51:45.897Z,40.37
2023-03-29T11:54:41.105Z,41.02
2023-03-29T11:57:35.079Z,41.99
2023-03-29T12:00:24.855Z,40.11
2023-03-29T12:03:29.153Z,39.68
2023-03-29T12:06:06.519Z,38.83
2023-03-29T12:08:46.208Z,39.45
2023-03-29T12:11:27.298Z,40.99
2023-03-29T12:14:21.210Z,39.86
2023-03-29T12:16:56.991Z,41.34
2023-03-29T12:19:31.405Z,41.52
2023-03-29T12:22:01.204Z,39.78
2023-03-29T12:24:32.537Z,38.76
2023-03-29T12:27:29.123Z,38.18
2023-03-29T12:31:02.861Z,38.41
2023-03-29T12:33:38.204Z,36.48
2023-03-29T12:36:51.985Z,34.54
2023-03-29T12:39:39.654Z,35.42
2023-03-29T12:42:26.271Z,35.68
2023-03-29T12:45:31.891Z,35.44
2023-03-29T12:48:00.708Z,36.45
2023-03-29T12:50:44.353Z,36.56
2023-03-29T12:53:39.103Z,36.02
2023-03-29T12:56:15.699Z,35.92
2023-03-29T12:59:07.530Z,35.78
2023-03-29T13:01:41.392Z,35.96
2023-03-29T13:04:20.232Z,36.20
2023-03-29T13:07:03.484Z,36.13
2023-03-29T13:09:52.798Z,36.53
2023-03-29T13:12:41.817Z,34.62
2023-03-29T13:15:16.547Z,35.55
2023-03-29T13:18:04.021Z,35.46
2023-03-29T13:20:50.699Z,34.89
2023-03-29T13:23:43.729Z,33.54
2023-03-29T13:26:33.043Z,33.94
2023-03-29T13:29:34.765Z,33.30
2023-03-29T13:32:35.951Z,33.97
2023-03-29T13:35:28.792Z,32.89
2023-03-29T13:38:20.144Z,32.30
2023-03-29T13:40:54.018Z,32.03
2023-03-29T13:43:56.435Z,31.73
2023-03-29T13:46:43.489Z,32.75
2023-03-29T13:49:26.253Z,33.15
2023-03-29T13:51:54.214Z,32.33
2023-03-29T13:54:33.491Z,33.47
2023-03-29T13:57:15.647Z,34.66
2023-03-29T14:00:17.075Z,36.02
2023-03-29T14:02:56.670Z,36.45
2023-03-29T14:05:36.011Z,36.84
2023-03-29T14:08:30.458Z,37.30
2023-03-29T14:11:03.211Z,37.18
2023-03-29T14:13:31.136Z,36.94
2023-03-29T14:16:04.330Z,36.19
2023-03-29T14:18:38.041Z,35.91
2023-03-29T14:21:06.869Z,36.97
2023-03-29T14:23:37.651Z,37.89
2023-03-29T14:26:18.922Z,37.73
2023-03-29T14:28:51.400Z,37.56
2023-03-29T14:31:31.307Z,38.36
2023-03-29T14:34:01.225Z,39.26
2023-03-29T14:36:33.136Z,40.10
2023-03-29T14:39:15.255Z,41.02
2023-03-29T14:41:54.624Z,40.30
2023-03-29T14:44:27.354Z,40.47
2023-03-29T14:46:56.217Z,40.79
2023-03-29T14:49:24.513Z,40.86
2023-03-29T14:51:54.737Z,40.77
2023-03-29T14:54:27.312Z,39.68
2023-03-29T14:56:56.158Z,40.49
2023-03-29T14:59:35.467Z,41.03
2023-03-29T15:02:04.124Z,41.08
2023-03-29T15:04:35.083Z,42.63
2023-03-29T15:07:04.962Z,41.62
2023-03-29T15:09:35.093Z,38.08
2023-03-29T15:12:03.488Z,39.01
2023-03-29T15:14:36.832Z,41.19
2023-03-29T15:17:36.360Z,39.82
2023-03-29T15:20:27.227Z,37.86
2023-03-29T15:23:20.684Z,36.40
2023-03-29T15:26:06.988Z,35.92
2023-03-29T15:28:44.628Z,35.32
2023-03-29T15:31:18.395Z,35.36
2023-03-29T15:33:46.706Z,36.86
2023-03-29T15:36:15.186Z,37.13
2023-03-29T15:38:45.427Z,38.37
2023-03-29T15:41:14.544Z,39.21
2023-03-29T15:43:43.133Z,40.61
2023-03-29T15:46:14.147Z,41.00
2023-03-29T15:48:43.023Z,41.68
2023-03-29T15:51:12.488Z,42.22
2023-03-29T15:53:40.930Z,42.35
2023-03-29T15:56:11.502Z,42.66
2023-03-29T15:58:39.590Z,41.95
2023-03-29T16:01:35.692Z,41.70
2023-03-29T16:04:07.844Z,40.99
2023-03-29T16:06:36.486Z,41.32
2023-03-29T16:09:06.942Z,42.18
2023-03-29T16:11:35.272Z,42.33
2023-03-29T16:14:11.589Z,43.52
2023-03-29T16:16:39.402Z,43.78
2023-03-29T16:19:07.166Z,44.50
2023-03-29T16:21:35.339Z,45.31
2023-03-29T16:24:03.986Z,45.79
2023-03-29T16:26:32.503Z,46.37
2023-03-29T16:29:00.383Z,46.52
2023-03-29T16:31:28.284Z,46.80
2023-03-29T16:33:56.153Z,47.15
2023-03-29T16:36:24.037Z,47.84
2023-03-29T16:38:52.037Z,48.07
2023-03-29T16:41:19.848Z,48.42
2023-03-29T16:43:47.914Z,48.80
2023-03-29T16:46:15.964Z,49.23
2023-03-29T16:48:43.957Z,49.61
2023-03-29T16:51:11.902Z,49.78
2023-03-29T16:53:40.411Z,49.96
2023-03-29T16:56:08.630Z,50.52
2023-03-29T16:58:39.343Z,50.51
2023-03-29T17:01:16.581Z,51.65
2023-03-29T17:03:44.610Z,51.99
2023-03-29T17:06:12.735Z,51.98
2023-03-29T17:08:42.319Z,52.23
2023-03-29T17:11:11.463Z,51.61
2023-03-29T17:13:40.304Z,52.22
2023-03-29T17:16:08.501Z,52.26
2023-03-29T17:18:36.699Z,52.42
2023-03-29T17:21:05.059Z,52.70
2023-03-29T17:23:33.079Z,52.97
2023-03-29T17:26:01.965Z,53.24
2023-03-29T17:28:30.156Z,53.44
2023-03-29T17:30:58.297Z,53.43
2023-03-29T17:33:26.469Z,53.66
2023-03-29T17:35:54.535Z,53.56
2023-03-29T17:38:22.479Z,53.91
2023-03-29T17:40:54.503Z,53.86
2023-03-29T17:43:22.893Z,54.35
2023-03-29T17:45:53.011Z,55.04
2023-03-29T17:48:23.108Z,54.59
2023-03-29T17:50:53.038Z,54.35
2023-03-29T17:53:21.599Z,54.21
2023-03-29T17:55:49.755Z,54.37
2023-03-29T17:58:19.873Z,54.47
2023-03-29T18:00:48.038Z,54.96
2023-03-29T18:03:16.969Z,54.91
2023-03-29T18:05:48.424Z,54.72
2023-03-29T18:08:16.978Z,55.11
2023-03-29T18:10:47.559Z,55.43
2023-03-29T18:13:16.281Z,55.30
2023-03-29T18:15:45.406Z,55.64
2023-03-29T18:18:13.555Z,55.66
2023-03-29T18:20:45.448Z,56.05
2023-03-29T18:23:13.787Z,55.98
2023-03-29T18:25:42.052Z,56.13
2023-03-29T18:28:10.480Z,56.31
2023-03-29T18:30:38.633Z,58.04
2023-03-29T18:33:06.835Z,58.12
2023-03-29T18:35:35.283Z,56.87
2023-03-29T18:38:04.588Z,56.80
2023-03-29T18:40:34.604Z,57.06
2023-03-29T18:43:02.775Z,57.28
2023-03-29T18:45:31.477Z,57.39
2023-03-29T18:47:59.692Z,57.74
2023-03-29T18:50:27.946Z,58.30
2023-03-29T18:52:55.824Z,58.47
2023-03-29T18:55:23.892Z,58.63
2023-03-29T18:57:51.944Z,59.10
2023-03-29T19:00:19.921Z,59.57
2023-03-29T19:02:48.351Z,59.16
2023-03-29T19:05:16.321Z,59.29
2023-03-29T19:07:44.453Z,59.25
2023-03-29T19:10:12.312Z,59.38
2023-03-29T19:12:40.182Z,60.18
2023-03-29T19:15:09.541Z,60.67
2023-03-29T19:17:37.362Z,60.27
2023-03-29T19:20:09.847Z,60.33
2023-03-29T19:22:38.378Z,60.78
2023-03-29T19:25:07.462Z,61.06
2023-03-29T19:27:35.344Z,61.34
2023-03-29T19:30:04.299Z,61.74
2023-03-29T19:32:33.653Z,61.71
2023-03-29T19:35:01.855Z,62.75
2023-03-29T19:37:29.978Z,62.07
2023-03-29T19:39:57.828Z,61.31
2023-03-29T19:42:25.656Z,61.60
2023-03-29T19:44:53.503Z,61.85
2023-03-29T19:47:21.312Z,61.82
2023-03-29T19:49:49.234Z,62.23
2023-03-29T19:52:17.022Z,62.23
2023-03-29T19:54:44.935Z,62.17
2023-03-29T19:57:12.867Z,62.17
2023-03-29T19:59:41.025Z,61.95
2023-03-29T20:02:11.324Z,61.86
2023-03-29T20:04:39.623Z,62.22
2023-03-29T20:07:07.683Z,62.57
2023-03-29T20:09:35.568Z,62.56
2023-03-29T20:12:04.600Z,63.13
2023-03-29T20:14:34.211Z,63.14
2023-03-29T20:17:02.199Z,62.60
2023-03-29T20:19:30.011Z,62.87
2023-03-29T20:21:58.814Z,62.73
2023-03-29T20:24:26.707Z,62.93
2023-03-29T20:26:55.179Z,62.79
2023-03-29T20:29:22.991Z,62.74
2023-03-29T20:31:50.807Z,62.81
2023-03-29T20:34:18.786Z,63.10
2023-03-29T20:36:46.970Z,63.32
2023-03-29T20:39:18.630Z,63.26
2023-03-29T20:41:49.164Z,63.27
2023-03-29T20:44:18.334Z,63.11
2023-03-29T20:46:54.261Z,62.81
2023-03-29T20:49:26.564Z,62.40
2023-03-29T20:52:00.926Z,63.20
2023-03-29T20:54:28.832Z,62.68
2023-03-29T20:56:56.764Z,62.47
2023-03-29T20:59:24.949Z,62.23
2023-03-29T21:01:53.200Z,62.44
2023-03-29T21:04:21.456Z,62.30
2023-03-29T21:06:49.702Z,61.71
2023-03-29T21:09:20.899Z,61.41
2023-03-29T21:11:49.876Z,61.57
2023-03-29T21:14:19.469Z,61.47
2023-03-29T21:16:50.361Z,61.50
2023-03-29T21:19:18.699Z,61.74
2023-03-29T21:21:48.211Z,62.09
2023-03-29T21:24:16.045Z,62.43
2023-03-29T21:26:44.557Z,62.52
2023-03-29T21:29:12.515Z,63.48
2023-03-29T21:31:40.644Z,62.58
2023-03-29T21:34:09.000Z,62.17
2023-03-29T21:36:36.843Z,62.07
2023-03-29T21:39:04.721Z,61.97
2023-03-29T21:41:32.681Z,62.08
2023-03-29T21:44:00.614Z,62.03
2023-03-29T21:46:28.660Z,62.29
2023-03-29T21:48:56.555Z,62.31
2023-03-29T21:51:24.504Z,62.29
2023-03-29T21:53:52.373Z,62.44
2023-03-29T21:56:20.253Z,62.34
2023-03-29T21:58:48.013Z,62.58
2023-03-29T22:01:16.310Z,61.93
2023-03-29T22:03:44.374Z,61.84
2023-03-29T22:06:14.604Z,61.92
2023-03-29T22:08:42.492Z,61.89
2023-03-29T22:11:16.437Z,62.12
2023-03-29T22:13:44.830Z,62.03
2023-03-29T22:16:16.346Z,61.88
2023-03-29T22:18:49.461Z,61.77
2023-03-29T22:21:26.731Z,62.09
2023-03-29T22:23:56.968Z,62.39
2023-03-29T22:26:29.075Z,62.02
2023-03-29T22:28:59.680Z,62.25
2023-03-29T22:31:29.534Z,62.16
2023-03-29T22:33:58.486Z,62.07
2023-03-29T22:36:29.975Z,62.12
2023-03-29T22:38:58.000Z,62.15
2023-03-29T22:41:28.139Z,62.43
2023-03-29T22:43:59.200Z,62.43
2023-03-29T22:46:27.517Z,62.42
2023-03-29T22:48:55.668Z,62.70
2023-03-29T22:51:23.639Z,62.67
2023-03-29T22:53:51.721Z,61.83
2023-03-29T22:56:19.709Z,61.39
2023-03-29T22:58:47.522Z,61.54
2023-03-29T23:01:15.736Z,59.98
2023-03-29T23:03:43.586Z,59.76
2023-03-29T23:06:11.568Z,59.09
2023-03-29T23:08:39.378Z,59.11
2023-03-29T23:11:11.436Z,58.81
2023-03-29T23:13:41.277Z,58.83
2023-03-29T23:16:09.567Z,58.93
2023-03-29T23:18:37.651Z,59.14
2023-03-29T23:21:06.789Z,59.10
2023-03-29T23:23:35.552Z,58.66
2023-03-29T23:26:03.954Z,58.93
2023-03-29T23:28:34.315Z,59.20
2023-03-29T23:31:18.291Z,59.37
2023-03-29T23:33:46.326Z,59.29
2023-03-29T23:36:17.382Z,58.92
2023-03-29T23:38:46.918Z,59.12
2023-03-29T23:41:16.696Z,59.89
2023-03-29T23:43:46.970Z,59.53
2023-03-29T23:46:17.112Z,59.00
2023-03-29T23:48:48.868Z,58.93
2023-03-29T23:51:22.610Z,58.65
2023-03-29T23:53:51.128Z,59.09
2023-03-29T23:56:19.022Z,58.84
2023-03-29T23:58:47.260Z,58.59
